Historyczne dane pomiarowe

Dodano dane terminowe – wersja testowa.

Dane z okresu 1951-2019

Wersja bazy: 1.34 [2019-03-16, lista zmian], aktualizacja planowana na 2019-04-15

Dane meteo z obszaru Polski uzyskane na podstawie danych udostępnionych przez Instytut Meteorologii i Gospodarki Wodnej – Państwowy Instytut Badawczy.

 

Wybierz Datę:    

       

TemperaturaWilgotnośćWiatrCiśnienieOpadyŚniegCzas trwania zjawisk
 Stacja t tx tn tng RH VA  wxwx mslp ppp RRR   cm mm wxwxwxwxwxwxwx
1952-02-26 -2.9 -0.4 -5.6 -6.6 89.0- 8.0 2.0---- 1.0-- 18---------
1952-02-27 -8.5 -2.0 -9.5 -5.0 78.3- 8.0 5.0---- 0.2-- 20---------
1952-02-28-14.3 -8.2-18.8-23.0 80.5- 3.0 0.0---- 0.0-- 20---------
1952-02-29 -7.8 -5.0-16.0-18.7 70.8- 8.0 2.7---- 1.0-- 20---------
1952-03-01 -5.3 -0.2 -7.5 -7.2 90.5- 8.0 4.3---- 4.4-- 22---------
1952-03-02 -4.9 -2.4 -6.9 -9.9 79.5- 3.3 7.0---- 0.0-- 27---------
1952-03-03 -6.6 -1.4 -9.5 -6.1 75.8- 4.7 2.7---- 0.0-- 27---------
1952-03-04-10.6 -7.3-18.8-25.3 81.8- 2.7 3.7---- 0.2-- 27---------
1952-03-05 -6.5 -3.0-11.2-13.0 76.0- 6.7 9.0---- 0.0-- 29---------
1952-03-06 -9.6 -6.4-14.0-16.1 63.8- 3.3 9.0---- 0.0-- 29---------
1952-03-07 -9.1 -3.4-13.3-15.5 52.8- 5.3 6.0---- 0.0-- 29---------
1952-03-08-11.1 -0.6-15.5-20.1 68.3- 0.0 0.3---- 0.0-- 29---------
1952-03-09 -8.4 -1.1-19.2-24.7 67.8- 0.0 1.0---- 0.0-- 26---------
1952-03-10 -5.0 3.1-15.0-21.5 63.5- 2.0 1.0---- 0.0-- 23---------
1952-03-11 -3.6 3.4-14.7-19.9 73.3- 0.0 2.7---- 0.0-- 21---------
1952-03-12 0.3 2.2 -4.6 -6.8 89.0- 8.0 3.0---- 0.0-- 16---------
1952-03-13 -1.5 0.9 -3.5 0.1 95.5- 7.3 6.0---- 5.9-- 13---------
1952-03-14 -9.6 -3.3-10.9-10.6 71.5- 5.3 7.0---- 0.0-- 21---------
1952-03-15 -2.9 -0.1-14.4-22.2 85.0- 8.0 4.3---- 1.5-- 18---------
1952-03-16 0.3 1.3 -3.0 -4.8 85.8- 8.0 5.7---- 0.0-- 20---------
1952-03-17 -3.5 0.8 -6.2 -5.5 77.0- 3.3 4.7---- 0.0-- 19---------
1952-03-18-10.1 -6.0-13.6-18.1 62.3- 0.7 4.7---- 0.0-- 16---------
1952-03-19-10.2 -4.5-16.0-18.6 70.3- 4.7 4.3---- 1.9-- 15---------
1952-03-20 -9.5 -5.1-15.2-19.1 69.8- 4.7 3.3---- 0.4-- 24---------
1952-03-21-12.9 -8.8-15.9-13.6 75.0- 3.0 2.0---- 0.0-- 26---------
1952-03-22-14.5 -7.4-21.9-26.4 71.0- 0.3 1.3---- 0.0-- 26---------
1952-03-23-12.7 -7.0-18.7-22.3 71.8- 1.7 3.0---- 0.0-- 22---------
1952-03-24 -3.6 0.0-14.7-17.6 86.8- 6.7 4.3---- 3.0-- 20---------
1952-03-25 -9.1 -0.6-10.9 -9.3 79.3- 2.7 4.0---- 0.0-- 26---------
1952-03-26-13.4 -9.2-18.7-24.6 67.3- 0.3 2.0---- 0.0-- 26---------
124.3 ms

 

Źródłem pochodzenia danych jest Instytut Meteorologii i Gospodarki Wodnej – Państwowy Instytut Badawczy. Dane Instytutu Meteorologii i Gospodarki Wodnej – Państwowego Instytutu Badawczego zostały przetworzone.

Dane źródłowe można odnaleźć na stronie https://dane.imgw.pl